Tiempo atmosférico en la estación meteorológica de Bustillo del Páramo, León (850 m.)



Fecha
DESCASC
Temp. máxima en grados centígrados (hora)
DESCASC
Temp. mínima en grados centígrados (hora)
DESCASC
Temp. media en grados centígrados
DESCASC
Racha de viento máxima en m/sg (hora)
DESCASC
Velocidad máxima media en intervalos de 10 minutos(hora)
DESCASC
Precipitaciones diarias en mm
DESCASC
Precipitaciones de 00:00 a 06:00 en mm
DESCASC
Precipitaciones de 06:00 a 12:00 en mm
DESCASC
Precipitaciones de 12:00 a 18:00 en mm
DESCASC
Precipitaciones de 18:00 a 24:00 en mm
DESCASC
18-01-2018 12.8 (16:50) -1.9 (08:20) 5.5 6.11 (22:40) 4.44 (22:40) 0 0 0 0 0
17-01-2018 11 (16:20) 1 (23:59) 6 15 (05:20) 11.39 (05:10) 0 0 0 0 0
16-01-2018 12.4 (15:50) 3.5 (00:50) 7.9 12.5 (11:30) 9.17 (12:20) 0 0 0 0 0
15-01-2018 4.6 (22:50) -6.2 (05:20) -0.8 5.28 (23:30) 3.06 (23:30) 0 0 0 0 0
14-01-2018 5.9 (16:10) -6 (-00:0) 0 6.11 (09:20) 4.17 (01:30) 0 0 0 0 0
13-01-2018 2.8 (16:50) -2.1 (-00:0) 0.4 6.67 (22:30) 4.17 (22:30) 0.6 0 0.4 0.2 0
12-01-2018 3.7 (15:30) -2 (-00:0) 0.9 6.67 (00:30) 5.28 (00:30) 0 0 0 0 0
11-01-2018 5.4 (14:20) 0.6 (00:00) 3 14.72 (12:10) 10.56 (12:10) 0 0 0 0 0
10-01-2018 6.6 (15:40) -0.3 (00:00) 3.1 16.39 (15:50) 12.22 (15:50) 1.8 0 0 1.8 0
09-01-2018 2.6 (17:30) -1.9 (-00:0) 0.3 8.61 (16:10) 6.11 (15:30) 0 0 0 0 0
08-01-2018 6.7 (15:50) -2.5 (-00:0) 2.1 5 (17:00) 3.89 (17:00) 0 0 0 0 0
07-01-2018 8.4 (14:00) 0.2 (00:00) 4.3 11.11 (13:00) 8.33 (12:50) 0.4 0 0 0 0.4
06-01-2018 3.8 (15:50) -0.8 (-00:0) 1.5 8.33 (00:50) 6.11 (16:40) 0.4 0 0.4 0 0
05-01-2018 8.1 (00:20) 2.3 (00:00) 5.2 15 (08:20) 10 (06:20) 0.4 0 0.4 0 0
04-01-2018 14.7 (14:30) 7.6 (09:00) 11.1 13.33 (16:20) 9.72 (16:20) 0 0 0 0 0
03-01-2018 15.5 (14:40) 10.1 (00:00) 12.8 15.28 (15:20) 11.67 (15:20) 0.2 0 0 0 0.2
02-01-2018 12.7 (23:59) 6.4 (00:00) 9.5 13.06 (23:40) 8.06 (00:10) 0 0 0 0 0
01-01-2018 11.3 (14:30) 0.5 (00:00) 5.9 18.33 (14:40) 12.78 (15:50) 0 0 0 0 0
31-12-2017 8.5 (13:00) 1.9 (00:00) 5.2 19.44 (17:10) 13.61 (17:10) 1.4 0 0 1.4 0
30-12-2017 14.3 (16:00) 4 (00:00) 9.2 8.33 (07:50) 5 (17:10) 0 0 0 0 0
29-12-2017 13.3 (14:30) 5.1 (00:00) 9.2 15 (15:40) 10.83 (13:10) 0 0 0 0 0
28-12-2017 11.5 (13:40) 2.7 (00:00) 7.1 19.17 (15:40) 13.33 (14:00) 0 0 0 0 0
27-12-2017 6.4 (13:20) 2.9 (00:00) 4.7 19.44 (00:50) 13.06 (02:20) 0.6 0.6 0 0 0
26-12-2017 7.1 (23:00) 0.4 (00:00) 3.7 22.22 (23:59) 13.06 (23:10) 4.6 0 0 0 4.6
25-12-2017 5.7 (19:40) -2 (-00:0) 1.8 10.28 (19:50) 7.22 (19:50) 0.8 0 0 0 0.8
24-12-2017 9.2 (15:30) -2 (-00:0) 3.6 4.44 (03:00) 3.61 (03:00) 0 0 0 0 0

Gráficas

Temp. máximas Temp. mínimas Temp. medias Precipitaciones Rachas de viento máximas Velocidades máximas media en intervalos de 10 minutos

Datos horarios

Fecha y hora oficial Temperatura (ºC) Velocidad del viento (km/h) Dirección del viento Racha (km/h) Dirección de racha Precipitación (mm) Presión (hPa) Tendencia (hPa) Humedad (%)
2018-01-22 23:00:00 5.4 0 Calma 4 Sudoeste 0 -- -- 97
2018-01-22 22:00:00 5.5 3 Sudoeste 6 Sudoeste 0 -- -- 96
2018-01-22 21:00:00 5.9 4 Sudoeste 5 Sudoeste 0 -- -- 95
2018-01-22 20:00:00 5.9 3 Este 8 Este 0 -- -- 95
2018-01-22 19:00:00 5.7 6 Este 11 Este 0 -- -- 95
2018-01-22 18:00:00 6.1 5 Este 13 Este 0 -- -- 93
2018-01-22 17:00:00 6.7 8 Este 16 Sudeste 0 -- -- 92
2018-01-22 16:00:00 7.1 7 Sudeste 13 Sudeste 0 -- -- 89
2018-01-22 15:00:00 6.9 6 Sudeste 17 Sudeste 0 -- -- 93
2018-01-22 14:00:00 6.4 8 Sudeste 14 Este 0 -- -- 96
2018-01-22 13:00:00 4.6 6 Sudeste 11 Sudeste 0 -- -- 97
2018-01-22 12:00:00 3.1 7 Sudeste 12 Sudeste 0 -- -- 98
2018-01-22 11:00:00 1.1 5 Este 11 Este 0 -- -- 98
2018-01-22 10:00:00 -0.5 7 Este 12 Sudeste 0 -- -- 96
2018-01-22 09:00:00 0.1 4 Sudeste 10 Sudeste 0 -- -- 94
2018-01-22 08:00:00 1.5 7 Sur 12 Sudoeste 0 -- -- 94
2018-01-22 07:00:00 3 5 Sur 21 Noroeste 0 -- -- 90
2018-01-22 06:00:00 6.3 14 Oeste 26 Oeste 0 -- -- 89
2018-01-22 05:00:00 6.8 7 Oeste 21 Oeste 0 -- -- 90
2018-01-22 04:00:00 5.5 7 Oeste 19 Oeste 0 -- -- 92
2018-01-22 03:00:00 6.6 16 Oeste 26 Oeste 0 -- -- 90
2018-01-22 02:00:00 6.2 15 Oeste 21 Oeste 0 -- -- 92
2018-01-22 01:00:00 5.8 15 Noroeste 20 Noroeste 0 -- -- 92
2018-01-22 00:00:00 6.5 17 Noroeste 24 Noroeste 0 -- -- 92
2018-01-21 23:00:00 5.9 14 Noroeste 18 Noroeste 0 -- -- 92
2018-01-21 22:00:00 6.6 12 Oeste 19 Noroeste 0 -- -- 90
2018-01-21 21:00:00 7 10 Oeste 21 Oeste 0 -- -- 87
2018-01-21 20:00:00 8.2 17 Oeste 28 Oeste 0 -- -- 83
2018-01-21 19:00:00 9.2 19 Oeste 37 Oeste 0 -- -- 78
2018-01-21 18:00:00 10.5 24 Oeste 42 Oeste 0 -- -- 74
2018-01-21 17:00:00 12 25 Noroeste 41 Oeste 0 -- -- 68
2018-01-21 16:00:00 12.7 29 Oeste 38 Oeste 0 -- -- 66
2018-01-21 15:00:00 12.7 24 Oeste 34 Oeste 0 -- -- 68
2018-01-21 14:00:00 12.7 21 Oeste 36 Oeste 0 -- -- 68
2018-01-21 13:00:00 12.1 29 Oeste 37 Oeste 0 -- -- 72
2018-01-21 12:00:00 11.4 20 Oeste 28 Oeste 0 -- -- 74
2018-01-21 11:00:00 9.8 15 Oeste 28 Oeste 0 -- -- 83
2018-01-21 10:00:00 7.6 18 Oeste 24 Oeste 0 -- -- 91
2018-01-21 09:00:00 6.3 20 Oeste 27 Oeste 0 -- -- 93
2018-01-21 08:00:00 6.9 18 Oeste 31 Oeste 0 -- -- 91
2018-01-21 07:00:00 6.8 11 Oeste 19 Oeste 0 -- -- 92
2018-01-21 06:00:00 6.9 13 Oeste 30 Noroeste 0 -- -- 91
2018-01-21 05:00:00 6.9 21 Noroeste 32 Oeste 0 -- -- 92
2018-01-21 04:00:00 6.7 21 Oeste 29 Noroeste 0 -- -- 92
2018-01-21 03:00:00 6.8 10 Noroeste 28 Oeste 0 -- -- 90
2018-01-21 02:00:00 6.8 17 Sudoeste 27 Oeste 0 -- -- 89
2018-01-21 01:00:00 6.9 20 Oeste 30 Oeste 0 -- -- 89
2018-01-21 00:00:00 7.3 20 Oeste 32 Oeste 0 -- -- 90
2018-01-20 23:00:00 7.6 23 Oeste 43 Oeste 0 -- -- 89
2018-01-20 22:00:00 7.3 24 Oeste 36 Oeste 0 -- -- 89
2018-01-20 21:00:00 7.4 20 Noroeste 32 Oeste 0 -- -- 89
2018-01-20 20:00:00 7.6 21 Oeste 36 Oeste 0 -- -- 88
2018-01-20 19:00:00 7.8 26 Oeste 40 Oeste 0 -- -- 86
2018-01-20 18:00:00 8.1 25 Oeste 39 Oeste 0 -- -- 85
2018-01-20 17:00:00 8.2 24 Oeste 45 Oeste 0 -- -- 83
2018-01-20 16:00:00 9.3 31 Oeste 48 Oeste 0 -- -- 77
2018-01-20 15:00:00 9 35 Oeste 46 Oeste 0 -- -- 79
2018-01-20 14:00:00 9.9 40 Oeste 54 Oeste 0 -- -- 76
2018-01-20 13:00:00 9.2 37 Oeste 53 Oeste 0 -- -- 76
2018-01-20 12:00:00 8.7 28 Oeste 37 Oeste 0 -- -- 74
2018-01-20 11:00:00 6.6 20 Oeste 45 Oeste 0 -- -- 76
2018-01-20 10:00:00 3.6 17 Oeste 24 Oeste 0 -- -- 83
2018-01-20 09:00:00 1.8 13 Oeste 17 Oeste 0 -- -- 90
2018-01-20 08:00:00 1.5 7 Oeste 21 Oeste 0 -- -- 90
2018-01-20 07:00:00 1.4 8 Oeste 12 Oeste 0 -- -- 89
2018-01-20 06:00:00 1.8 8 Oeste 12 Noroeste 0 -- -- 89
2018-01-20 05:00:00 2.8 4 Oeste 18 Noroeste 0 -- -- 90
2018-01-20 04:00:00 3.3 13 Noroeste 21 Noroeste 0 -- -- 89
2018-01-20 03:00:00 3.1 13 Noroeste 22 Noroeste 0 -- -- 89
2018-01-20 02:00:00 2.7 14 Noroeste 29 Noroeste 0 -- -- 90
2018-01-20 01:00:00 3.3 24 Noroeste 31 Noroeste 0 -- -- 88
2018-01-20 00:00:00 3 9 Noroeste 24 Noroeste 0 -- -- 87
2018-01-19 23:00:00 3.6 12 Noroeste 23 Noroeste 0 -- -- 85
2018-01-19 22:00:00 4.2 14 Noroeste 24 Noroeste 0 -- -- 81
2018-01-19 21:00:00 4.3 13 Noroeste 19 Noroeste 0 -- -- 81
2018-01-19 20:00:00 5.6 9 Noroeste 16 Noroeste 0 -- -- 76
2018-01-19 19:00:00 6.4 11 Noroeste 18 Oeste 0 -- -- 75
2018-01-19 18:00:00 9.4 14 Oeste 25 Oeste 0 -- -- 63
2018-01-19 17:00:00 10.9 19 Oeste 32 Oeste 0 -- -- 61
2018-01-19 16:00:00 11.6 23 Noroeste 32 Oeste 0 -- -- 62
2018-01-19 15:00:00 11.5 22 Oeste 36 Noroeste 0 -- -- 65
2018-01-19 14:00:00 11.2 23 Noroeste 29 Oeste 0 -- -- 67
2018-01-19 13:00:00 10.6 17 Oeste 30 Noroeste 0 -- -- 75
2018-01-19 12:00:00 9.2 12 Oeste 27 Noroeste 0 -- -- 81
2018-01-19 11:00:00 7.4 20 Noroeste 26 Noroeste 0 -- -- 87
2018-01-19 10:00:00 4.8 19 Noroeste 26 Noroeste 0 -- -- 97
2018-01-19 09:00:00 3 17 Noroeste 23 Noroeste 0 -- -- 96
2018-01-19 08:00:00 2.6 16 Noroeste 23 Noroeste 0 -- -- 97
2018-01-19 07:00:00 2.8 10 Noroeste 18 Noroeste 0 -- -- 97
2018-01-19 06:00:00 3.4 14 Noroeste 26 Noroeste 0 -- -- 96
2018-01-19 05:00:00 2.8 18 Noroeste 24 Noroeste 0 -- -- 98
2018-01-19 04:00:00 1.8 9 Noroeste 14 Noroeste 0 -- -- 95
2018-01-19 03:00:00 2.3 5 Noroeste 15 Noroeste 0 -- -- 95
2018-01-19 02:00:00 2.5 8 Noroeste 13 Noroeste 0 -- -- 93
2018-01-19 01:00:00 3.1 9 Norte 20 Noroeste 0 -- -- 89
2018-01-19 00:00:00 4.3 11 Noroeste 22 Noroeste 0 -- -- 87
2018-01-18 23:00:00 5.1 14 Noroeste 22 Noroeste 0 -- -- 84
2018-01-18 22:00:00 5.5 13 Noroeste 18 Noroeste 0 -- -- 81
2018-01-18 21:00:00 6.1 7 Noroeste 21 Noroeste 0 -- -- 80
2018-01-18 20:00:00 6.3 10 Noroeste 14 Noroeste 0 -- -- 79
2018-01-18 19:00:00 8.8 2 Sur 7 Sur 0 -- -- 74
2018-01-18 18:00:00 11.8 8 Sur 13 Sur 0 -- -- 65
2018-01-18 17:00:00 12.7 11 Sur 13 Sur 0 -- -- 61
2018-01-18 16:00:00 12.2 6 Sur 14 Sur 0 -- -- 62
2018-01-18 15:00:00 10.8 6 Sur 13 Sur 0 -- -- 63
2018-01-18 14:00:00 9.1 10 Sur 15 Sudoeste 0 -- -- 71
2018-01-18 13:00:00 7.6 8 Sur 12 Sur 0 -- -- 72
2018-01-18 12:00:00 6.6 6 Sur 9 Sur 0 -- -- 76
2018-01-18 11:00:00 3.4 0 Calma 7 Norte 0 -- -- 87
2018-01-18 10:00:00 0.4 5 Norte 8 Norte 0 -- -- 95
2018-01-18 09:00:00 -1.9 3 Oeste 6 Oeste 0 -- -- 94
2018-01-18 08:00:00 -1.7 5 Oeste 6 Oeste 0 -- -- 89
2018-01-18 07:00:00 -0.4 5 Noroeste 9 Noroeste 0 -- -- 87
2018-01-18 06:00:00 0.1 8 Noroeste 17 Norte 0 -- -- 91
2018-01-18 05:00:00 0.2 13 Norte 16 Noroeste 0 -- -- 91
2018-01-18 04:00:00 0 8 Norte 13 Norte 0 -- -- 90
2018-01-18 03:00:00 0.3 8 Norte 14 Noroeste 0 -- -- 91
2018-01-18 02:00:00 0.6 9 Noroeste 12 Noroeste 0 -- -- 91
2018-01-18 01:00:00 0.8 10 Norte 13 Norte 0 -- -- 89
2018-01-18 00:00:00 1 9 Norte 11 Norte 0 -- -- 89
2018-01-17 23:00:00 1.7 8 Noroeste 11 Norte 0 -- -- 88
2018-01-17 22:00:00 3.2 7 Noroeste 13 Noroeste 0 -- -- 83
2018-01-17 21:00:00 4.1 2 Oeste 13 Oeste 0 -- -- 81
2018-01-17 20:00:00 4.7 6 Oeste 19 Noroeste 0 -- -- 78
2018-01-17 19:00:00 6.2 13 Noroeste 14 Noroeste 0 -- -- 75
2018-01-17 18:00:00 9.5 9 Oeste 18 Noroeste 0 -- -- 64
2018-01-17 17:00:00 10.9 11 Oeste 16 Oeste 0 -- -- 56
2018-01-17 16:00:00 10.8 13 Oeste 23 Oeste 0 -- -- 58
2018-01-17 15:00:00 10.2 9 Oeste 20 Oeste 0 -- -- 60
2018-01-17 14:00:00 9.6 11 Noroeste 21 Oeste 0 -- -- 62
2018-01-17 13:00:00 8.7 14 Noroeste 27 Noroeste 0 -- -- 65
2018-01-17 12:00:00 7.7 23 Noroeste 34 Noroeste 0 -- -- 70
2018-01-17 11:00:00 6.4 21 Noroeste 33 Noroeste 0 -- -- 78
2018-01-17 10:00:00 4.9 24 Noroeste 34 Noroeste 0 -- -- 83
2018-01-17 09:00:00 4 21 Noroeste 29 Noroeste 0 -- -- 88
2018-01-17 08:00:00 4.2 22 Noroeste 30 Noroeste 0 -- -- 86
2018-01-17 07:00:00 5.1 24 Noroeste 43 Oeste 0 -- -- 84
2018-01-17 06:00:00 5.8 31 Noroeste 54 Noroeste 0 -- -- 80
2018-01-17 05:00:00 6.9 41 Noroeste 52 Noroeste 0 -- -- 81
2018-01-17 04:00:00 7.2 32 Noroeste 46 Oeste 0 -- -- 82
2018-01-17 03:00:00 7.9 26 Noroeste 35 Noroeste 0 -- -- 85
2018-01-17 02:00:00 8.2 19 Oeste 37 Oeste 0 -- -- 84
2018-01-17 01:00:00 8.4 22 Oeste 42 Oeste 0 -- -- 84
2018-01-17 00:00:00 8.9 31 Oeste 43 Oeste 0 -- -- 84
2018-01-16 23:00:00 8.8 24 Oeste 33 Oeste 0 -- -- 84
2018-01-16 22:00:00 8.3 10 Sur 16 Oeste 0 -- -- 87
2018-01-16 21:00:00 8.5 9 Oeste 26 Oeste 0 -- -- 87
2018-01-16 20:00:00 8.9 5 Sudoeste 9 Sudoeste 0 -- -- 84
2018-01-16 19:00:00 9 4 Sudoeste 26 Oeste 0 -- -- 84
2018-01-16 18:00:00 10.3 19 Oeste 33 Oeste 0 -- -- 79
2018-01-16 17:00:00 11.6 20 Oeste 39 Oeste 0 -- -- 76
2018-01-16 16:00:00 12.3 31 Oeste 44 Oeste 0 -- -- 77
2018-01-16 15:00:00 12 30 Oeste 42 Oeste 0 -- -- 78
2018-01-16 14:00:00 11.4 31 Oeste 43 Oeste 0 -- -- 82
2018-01-16 13:00:00 10.9 28 Oeste 44 Noroeste 0 -- -- 83
2018-01-16 12:00:00 10.3 31 Noroeste 45 Noroeste 0 -- -- 87
2018-01-16 11:00:00 9.4 30 Oeste 43 Oeste 0 -- -- 88
2018-01-16 10:00:00 8 9 Oeste 14 Oeste 0 -- -- 89
2018-01-16 09:00:00 6.3 9 Sudoeste 13 Oeste 0 -- -- 93
2018-01-16 08:00:00 6.5 8 Oeste 13 Noroeste 0 -- -- 97
2018-01-16 07:00:00 6 6 Sudoeste 9 Sudoeste 0 -- -- 96
2018-01-16 06:00:00 5.8 4 Sur 21 Oeste 0 -- -- 93
2018-01-16 05:00:00 6.7 13 Oeste 31 Oeste 0 -- -- 93
2018-01-16 04:00:00 5.8 7 Sudeste 13 Sudeste 0 -- -- 95
2018-01-16 03:00:00 4.4 8 Sur 13 Sur 0 -- -- 95
2018-01-16 02:00:00 3.9 4 Sur 8 Sur 0 -- -- 93
2018-01-16 01:00:00 3.6 3 Sudeste 12 Sudoeste 0 -- -- 92
2018-01-16 00:00:00 3.8 6 Sudoeste 19 Sudoeste 0 -- -- 91
2018-01-15 23:00:00 4.3 3 Sudoeste 12 Oeste 0 -- -- 89
2018-01-15 22:00:00 2.8 5 Noroeste 7 Noroeste 0 -- -- 92
2018-01-15 21:00:00 2.8 0 Calma 12 Noroeste 0 -- -- 91
2018-01-15 20:00:00 3.2 10 Noroeste 16 Oeste 0 -- -- 88
2018-01-15 19:00:00 4 5 Oeste 14 Oeste 0 -- -- 82
2018-01-15 18:00:00 4 6 Oeste 11 Sur 0 -- -- 87
2018-01-15 17:00:00 2.7 3 Sur 12 Sudoeste 0 -- -- 98
2018-01-15 16:00:00 1.8 9 Sudoeste 12 Sur 0 -- -- 98
2018-01-15 15:00:00 0 6 Sur 10 Sur 0 -- -- 99
2018-01-15 14:00:00 -1.2 6 Sur 8 Sur 0 -- -- 98
2018-01-15 13:00:00 -2.1 5 Sudeste 10 Sur 0 -- -- 98
2018-01-15 12:00:00 -2.7 5 Sur 9 Sudoeste 0 -- -- 97
2018-01-15 11:00:00 -2.4 3 Sur 5 Sur 0 -- -- 97
2018-01-15 10:00:00 -3.8 0 Calma 4 Este 0 -- -- 97
2018-01-15 09:00:00 -5.2 0 Calma 2 Norte 0 -- -- 97
2018-01-15 08:00:00 -5.3 0 Calma 2 Nordeste 0 -- -- 97
2018-01-15 07:00:00 -5.7 0 Calma 2 Nordeste 0 -- -- 97
2018-01-15 06:00:00 -5.9 0 Calma 2 Este 0 -- -- 96
2018-01-15 05:00:00 -6 0 Calma 0 Calma 0 -- -- 96
2018-01-15 04:00:00 -5.5 0 Calma 2 Sudeste 0 -- -- 97
2018-01-15 03:00:00 -4.7 0 Calma 6 Sur 0 -- -- 97
2018-01-15 02:00:00 -4.9 0 Calma 2 Noroeste 0 -- -- 97
2018-01-15 01:00:00 -4.7 0 Calma 4 Este 0 -- -- 97
2018-01-15 00:00:00 -4.5 2 Este 8 Este 0 -- -- 97
2018-01-14 23:00:00 -4.2 5 Este 8 Nordeste 0 -- -- 97
2018-01-14 22:00:00 -3.5 5 Este 8 Este 0 -- -- 97
2018-01-14 21:00:00 -2.8 4 Sudeste 8 Este 0 -- -- 97
2018-01-14 20:00:00 -2.1 4 Este 9 Este 0 -- -- 96
2018-01-14 19:00:00 -1.2 6 Este 10 Este 0 -- -- 94
2018-01-14 18:00:00 1.1 8 Sudeste 15 Noroeste 0 -- -- 86
2018-01-14 17:00:00 5.3 10 Noroeste 18 Noroeste 0 -- -- 76
2018-01-14 16:00:00 5.8 8 Noroeste 12 Oeste 0 -- -- 71
2018-01-14 15:00:00 5 9 Noroeste 14 Oeste 0 -- -- 78
2018-01-14 14:00:00 3.9 11 Noroeste 14 Noroeste 0 -- -- 82
2018-01-14 13:00:00 3.5 7 Noroeste 12 Noroeste 0 -- -- 84
2018-01-14 12:00:00 2 3 Sudoeste 4 Sur 0 -- -- 82
2018-01-14 11:00:00 0.9 0 Calma 14 Noroeste 0 -- -- 88
2018-01-14 10:00:00 -0.7 7 Noroeste 22 Noroeste 0 -- -- 96
2018-01-14 09:00:00 -0.1 13 Noroeste 20 Noroeste 0 -- -- 98
2018-01-14 08:00:00 -3.6 3 Noroeste 8 Noroeste 0 -- -- 100
2018-01-14 07:00:00 -5.6 4 Nordeste 8 Norte 0 -- -- 93
2018-01-14 06:00:00 -3.6 3 Noroeste 7 Nordeste 0 -- -- 96
2018-01-14 05:00:00 -3.5 3 Sudeste 15 Oeste 0 -- -- 95
2018-01-14 04:00:00 -1.5 8 Oeste 18 Oeste 0 -- -- 96
2018-01-14 03:00:00 -1.5 6 Noroeste 11 Noroeste -- -- -- 96
2018-01-14 02:00:00 0 9 Noroeste 19 Noroeste 0 -- -- 97
2018-01-14 01:00:00 -0.8 11 Noroeste 16 Oeste 0 -- -- 99
2018-01-14 00:00:00 -1.4 10 Norte 19 Oeste 0 -- -- 97
2018-01-13 23:00:00 -0.3 14 Oeste 24 Oeste 0 -- -- 97
2018-01-13 22:00:00 -2.1 9 Noroeste 12 Noroeste 0 -- -- 97
2018-01-13 21:00:00 -0.4 9 Oeste 14 Sudoeste 0 -- -- 97
2018-01-13 20:00:00 -1.1 4 Oeste 14 Oeste 0 -- -- 97
2018-01-13 19:00:00 -0.7 11 Oeste 14 Oeste 0 -- -- 96
2018-01-13 18:00:00 1 4 Sudoeste 8 Sudoeste 0 -- -- 91
2018-01-13 17:00:00 2.8 6 Sudoeste 8 Oeste 0 -- -- 90
2018-01-13 16:00:00 1.4 6 Noroeste 9 Oeste 0 -- -- 96
2018-01-13 15:00:00 1.6 3 Norte 4 Noroeste 0 -- -- 98
2018-01-13 14:00:00 1.1 0 Calma 0 Calma 0 -- -- 99
2018-01-13 13:00:00 0.3 0 Calma -- -- 0.2 -- -- 99
2018-01-13 12:00:00 0.4 0 Calma -- -- 0.2 -- -- 99
2018-01-13 11:00:00 0.3 0 Calma -- -- 0.2 -- -- 99
2018-01-13 10:00:00 0.1 0 Calma -- -- 0 -- -- 99
2018-01-13 09:00:00 0.1 0 Calma -- -- 0 -- -- 99
2018-01-13 08:00:00 0.1 0 Calma 3 Este 0 -- -- 99
2018-01-13 07:00:00 0.2 4 Este 8 Sudeste 0 -- -- 99
2018-01-13 06:00:00 0.2 5 Este 7 Este 0 -- -- 98
2018-01-13 05:00:00 0.9 5 Este 12 Este 0 -- -- 98
2018-01-13 04:00:00 1 9 Este 17 Este 0 -- -- 98
2018-01-13 03:00:00 1.1 5 Este 15 Este 0 -- -- 98
2018-01-13 02:00:00 1.1 10 Este 15 Este 0 -- -- 98
2018-01-13 01:00:00 1.1 4 Nordeste 14 Nordeste 0 -- -- 98
2018-01-13 00:00:00 1 10 Este 14 Nordeste 0 -- -- 98
2018-01-12 23:00:00 1 8 Este 13 Este 0 -- -- 98
2018-01-12 22:00:00 0.9 10 Este 14 Nordeste 0 -- -- 97
2018-01-12 21:00:00 1.2 6 Este 13 Nordeste 0 -- -- 96
2018-01-12 20:00:00 1.7 5 Este 9 Sudeste 0 -- -- 95
2018-01-12 19:00:00 2.2 8 Este 9 Este 0 -- -- 92
2018-01-12 18:00:00 2.8 3 Sudeste 10 Sudeste 0 -- -- 90
2018-01-12 17:00:00 3.4 7 Sudeste 11 Sudeste 0 -- -- 87
2018-01-12 16:00:00 3.7 4 Sudeste 9 Sudeste 0 -- -- 85
2018-01-12 15:00:00 3.6 4 Sur 10 Sur 0 -- -- 85
2018-01-12 14:00:00 2.7 5 Sudeste 11 Este 0 -- -- 87
2018-01-12 13:00:00 1.9 6 Este 10 Sudeste 0 -- -- 88
2018-01-12 12:00:00 1 2 Este 8 Este 0 -- -- 89
2018-01-12 11:00:00 -0.4 0 Calma 4 Este 0 -- -- 94
2018-01-12 10:00:00 -1.4 0 Calma 4 Este 0 -- -- 96
2018-01-12 09:00:00 -2 4 Sudeste 9 Nordeste 0 -- -- 94
2018-01-12 08:00:00 -1.7 4 Norte 13 Noroeste 0 -- -- 94
2018-01-12 07:00:00 -0.9 11 Norte 15 Noroeste 0 -- -- 94
2018-01-12 06:00:00 -0.6 8 Noroeste 14 Noroeste 0 -- -- 95
2018-01-12 05:00:00 -0.2 8 Noroeste 15 Noroeste 0 -- -- 95
2018-01-12 04:00:00 0.5 10 Noroeste 17 Noroeste 0 -- -- 95
2018-01-12 03:00:00 0.4 9 Noroeste 21 Noroeste 0 -- -- 93
2018-01-12 02:00:00 1.3 13 Noroeste 19 Noroeste 0 -- -- 93
2018-01-12 01:00:00 1.3 15 Oeste 24 Noroeste 0 -- -- 93
2018-01-12 00:00:00 1.4 4 Noroeste 29 Oeste 0 -- -- 91
2018-01-11 23:00:00 1.7 15 Noroeste 22 Noroeste 0 -- -- 90
2018-01-11 22:00:00 1.7 12 Oeste 27 Oeste 0 -- -- 88
2018-01-11 21:00:00 2.2 18 Oeste 31 Oeste 0 -- -- 87
2018-01-11 20:00:00 2.6 23 Oeste 32 Oeste 0 -- -- 85
2018-01-11 19:00:00 2.8 21 Oeste 32 Oeste 0 -- -- 83
2018-01-11 18:00:00 3.5 23 Oeste 42 Noroeste 0 -- -- 82
2018-01-11 17:00:00 4.8 34 Oeste 47 Oeste 0 -- -- 76
2018-01-11 16:00:00 5.4 35 Oeste 49 Oeste 0 -- -- 75
2018-01-11 15:00:00 5.3 32 Oeste 47 Oeste 0 -- -- 75
2018-01-11 14:00:00 5.1 24 Oeste 47 Oeste 0 -- -- 80
2018-01-11 13:00:00 4.1 36 Oeste 53 Oeste 0 -- -- 79
2018-01-11 12:00:00 3.6 36 Oeste 50 Oeste 0 -- -- 79
2018-01-11 11:00:00 2.3 28 Oeste 39 Oeste 0 -- -- 86
2018-01-11 10:00:00 1.3 21 Oeste 32 Oeste 0 -- -- 88
2018-01-11 09:00:00 0.6 20 Oeste 34 Oeste 0 -- -- 91
2018-01-11 08:00:00 1 22 Oeste 30 Oeste 0 -- -- 87
2018-01-11 07:00:00 1 21 Oeste 43 Oeste 0 -- -- 91
2018-01-11 06:00:00 1.5 28 Oeste 41 Oeste 0 -- -- 87
2018-01-11 05:00:00 0.9 18 Oeste 37 Oeste 0 -- -- 91
2018-01-11 04:00:00 1.5 23 Oeste 45 Oeste 0 -- -- 87
2018-01-11 03:00:00 1.2 17 Sudoeste 32 Sudoeste 0 -- -- 94
2018-01-11 02:00:00 1.2 9 Oeste 23 Sudoeste 0 -- -- 89
2018-01-11 01:00:00 1.2 14 Sudoeste 26 Sudoeste 0 -- -- 89
2018-01-11 00:00:00 1.3 16 Sudoeste 36 Sudoeste 0 -- -- 88
2018-01-10 23:00:00 0.7 10 Sur 18 Sur 0 -- -- 93
2018-01-10 22:00:00 0.5 3 Sudeste 18 Oeste 0 -- -- 94
2018-01-10 21:00:00 1.2 13 Oeste 41 Oeste 0 -- -- 92
2018-01-10 20:00:00 2.2 23 Oeste 32 Oeste 0 -- -- 80
2018-01-10 19:00:00 1.8 11 Oeste 30 Oeste 0 -- -- 84
2018-01-10 18:00:00 2.6 19 Oeste 51 Oeste 0 -- -- 85
2018-01-10 17:00:00 4.2 21 Oeste 52 Oeste 0 -- -- 85
2018-01-10 16:00:00 3.9 33 Oeste 59 Oeste 0.2 -- -- 89
2018-01-10 15:00:00 5.5 7 Oeste 22 Sudoeste 0 -- -- 92
2018-01-10 14:00:00 4.6 18 Sudoeste 27 Sudoeste 0 -- -- 98
2018-01-10 13:00:00 4.2 19 Sudoeste 27 Sudoeste 1.6 -- -- 99
2018-01-10 12:00:00 3.6 14 Sur 22 Sur 0 -- -- 99
2018-01-10 11:00:00 1.3 8 Este 12 Este 0 -- -- 99
2018-01-10 10:00:00 -0.1 0 Calma 9 Sudeste 0 -- -- 99
2018-01-10 09:00:00 -0.3 3 Sudoeste 10 Sur 0 -- -- 98
2018-01-10 08:00:00 0.7 4 Sudeste 6 Sudeste 0 -- -- 98
2018-01-10 07:00:00 1.5 0 Calma 6 Nordeste 0 -- -- 98
2018-01-10 06:00:00 1.6 0 Calma 4 Norte 0 -- -- 98
2018-01-10 05:00:00 1.7 0 Calma 3 Este 0 -- -- 98
2018-01-10 04:00:00 1.6 5 Norte 9 Noroeste 0 -- -- 98
2018-01-10 03:00:00 1.7 3 Sur 12 Sur 0 -- -- 98
2018-01-10 02:00:00 1.8 6 Sudeste 11 Este 0 -- -- 98
2018-01-10 01:00:00 1.9 3 Nordeste 5 Este 0 -- -- 98
2018-01-10 00:00:00 1.8 4 Este 9 Este 0 -- -- 97
2018-01-09 23:00:00 1.9 6 Este 15 Este 0 -- -- 97
2018-01-09 22:00:00 2.1 4 Nordeste 9 Nordeste 0 -- -- 96
2018-01-09 21:00:00 2.3 2 Este 9 Este 0 -- -- 96
2018-01-09 20:00:00 2.3 4 Sur 12 Sur 0 -- -- 96
2018-01-09 19:00:00 2.4 9 Sur 18 Sur 0 -- -- 95
2018-01-09 18:00:00 2.5 14 Sur 26 Sudoeste 0 -- -- 94
2018-01-09 17:00:00 2.5 19 Sur 31 Sur 0 -- -- 95
2018-01-09 16:00:00 2.5 20 Sur 30 Sur 0 -- -- 96
2018-01-09 15:00:00 1.7 20 Sur 30 Sur 0 -- -- 99
2018-01-09 14:00:00 0.5 12 Sudeste 20 Sudeste 0 -- -- 98
2018-01-09 13:00:00 0.2 14 Sudeste 19 Sudeste 0 -- -- 98
2018-01-09 12:00:00 -0.1 12 Sudeste 18 Sudeste 0 -- -- 98
2018-01-09 11:00:00 -0.6 6 Este 12 Este 0 -- -- 98
2018-01-09 10:00:00 -1 7 Este 14 Este 0 -- -- 98
2018-01-09 09:00:00 -1.3 5 Este 13 Este 0 -- -- 98
2018-01-09 08:00:00 -1.5 9 Este 16 Este 0 -- -- 98
2018-01-09 07:00:00 -1.6 11 Este 16 Este 0 -- -- 98
2018-01-09 06:00:00 -1.9 8 Este 12 Este 0 -- -- 98
2018-01-09 05:00:00 -1.7 7 Este 14 Nordeste 0 -- -- 97
2018-01-09 04:00:00 -1.8 11 Nordeste 15 Este 0 -- -- 97
2018-01-09 03:00:00 -1.8 9 Este 13 Nordeste 0 -- -- 96
2018-01-09 02:00:00 -1.5 9 Este 11 Nordeste 0 -- -- 96
2018-01-09 01:00:00 -1.4 8 Nordeste 9 Este 0 -- -- 95
2018-01-09 00:00:00 -0.7 4 Nordeste 8 Nordeste 0 -- -- 95
2018-01-08 23:00:00 -0.6 6 Este 9 Este 0 -- -- 94
2018-01-08 22:00:00 0.5 6 Este 9 Este 0 -- -- 91
2018-01-08 21:00:00 1.3 2 Nordeste 9 Sur 0 -- -- 86
2018-01-08 20:00:00 2.5 8 Sur 13 Sur 0 -- -- 81
2018-01-08 19:00:00 3.1 6 Sur 14 Sudeste 0 -- -- 82
2018-01-08 18:00:00 5.2 9 Sur 17 Sur 0 -- -- 75
2018-01-08 17:00:00 6.3 14 Sur 18 Sur 0 -- -- 66
2018-01-08 16:00:00 6.7 8 Sur 14 Sur 0 -- -- 65
2018-01-08 15:00:00 6.1 6 Sudoeste 12 Sudoeste 0 -- -- 65
2018-01-08 14:00:00 5.5 3 Oeste 8 Sudoeste 0 -- -- 68
2018-01-08 13:00:00 4.6 3 Sudoeste 8 Oeste 0 -- -- 70
2018-01-08 12:00:00 2.8 5 Noroeste 9 Noroeste 0 -- -- 85
2018-01-08 11:00:00 1.4 4 Noroeste 7 Noroeste 0 -- -- 91
2018-01-08 10:00:00 -1.1 3 Noroeste 10 Norte 0 -- -- 94
2018-01-08 09:00:00 -2.5 6 Norte 10 Noroeste 0 -- -- 95
2018-01-08 08:00:00 -2.3 6 Noroeste 12 Noroeste 0 -- -- 95
2018-01-08 07:00:00 -1.9 3 Noroeste 6 Noroeste 0 -- -- 94
2018-01-08 06:00:00 -1 3 Norte 9 Norte 0 -- -- 94
2018-01-08 05:00:00 -0.5 9 Noroeste 15 Norte 0 -- -- 94
2018-01-08 04:00:00 -0.7 4 Noroeste 8 Nordeste 0 -- -- 93
2018-01-08 03:00:00 -0.5 5 Nordeste 11 Nordeste 0 -- -- 93
2018-01-08 02:00:00 -0.3 5 Nordeste 10 Norte 0 -- -- 93
2018-01-08 01:00:00 0.1 7 Norte 14 Nordeste 0 -- -- 93
2018-01-08 00:00:00 0.8 9 Nordeste 12 Nordeste 0 -- -- 92
2018-01-07 23:00:00 0.8 6 Nordeste 10 Norte 0 -- -- 93
2018-01-07 22:00:00 0.9 6 Norte 9 Norte 0 -- -- 92
2018-01-07 21:00:00 2 7 Nordeste 24 Este 0 -- -- 91
2018-01-07 20:00:00 3.4 17 Este 38 Este 0 -- -- 89
2018-01-07 19:00:00 3.2 19 Sudeste 31 Sudeste 0.4 -- -- 92
2018-01-07 18:00:00 5.9 13 Este 23 Norte 0 -- -- 75
2018-01-07 17:00:00 6.4 21 Norte 29 Norte 0 -- -- 68
2018-01-07 16:00:00 6.6 18 Noroeste 31 Norte 0 -- -- 69
2018-01-07 15:00:00 6.8 20 Noroeste 37 Norte 0 -- -- 68
2018-01-07 14:00:00 8.4 26 Noroeste 37 Noroeste 0 -- -- 63
2018-01-07 13:00:00 7.2 30 Noroeste 40 Noroeste 0 -- -- 66
2018-01-07 12:00:00 5.8 24 Noroeste 36 Noroeste 0 -- -- 70
2018-01-07 11:00:00 3.7 23 Noroeste 37 Noroeste 0 -- -- 73
2018-01-07 10:00:00 2.6 21 Noroeste 32 Noroeste 0 -- -- 78
2018-01-07 09:00:00 2 18 Noroeste 29 Noroeste 0 -- -- 80
2018-01-07 08:00:00 1.4 16 Noroeste 27 Noroeste 0 -- -- 82
2018-01-07 07:00:00 1.8 21 Noroeste 29 Noroeste 0 -- -- 80
2018-01-07 06:00:00 1.9 19 Noroeste 35 Noroeste 0 -- -- 81
2018-01-07 05:00:00 1.9 18 Noroeste 28 Noroeste 0 -- -- 78
2018-01-07 04:00:00 1.8 13 Noroeste 33 Noroeste 0 -- -- 77
2018-01-07 03:00:00 0.8 16 Oeste 24 Oeste 0 -- -- 79
2018-01-07 02:00:00 1.5 13 Noroeste 29 Noroeste 0 -- -- 74
2018-01-07 01:00:00 0.9 18 Noroeste 23 Noroeste 0 -- -- 80
2018-01-07 00:00:00 0.3 13 Noroeste 23 Noroeste 0 -- -- 85
2018-01-06 23:00:00 0.6 15 Noroeste 23 Noroeste 0 -- -- 83
2018-01-06 22:00:00 1.1 15 Noroeste 19 Noroeste 0 -- -- 81
2018-01-06 21:00:00 1.1 10 Noroeste 14 Noroeste 0 -- -- 81
2018-01-06 20:00:00 1.4 10 Noroeste 22 Noroeste 0 -- -- 77
2018-01-06 19:00:00 1.7 11 Noroeste 27 Noroeste 0 -- -- 76
2018-01-06 18:00:00 2.4 14 Noroeste 26 Norte 0 -- -- 71
2018-01-06 17:00:00 3 19 Norte 28 Norte 0 -- -- 66
2018-01-06 16:00:00 3.7 17 Noroeste 24 Noroeste 0 -- -- 62
2018-01-06 15:00:00 3.3 14 Noroeste 21 Oeste 0 -- -- 73
2018-01-06 14:00:00 2.7 16 Noroeste 21 Noroeste 0 -- -- 74
2018-01-06 13:00:00 1.6 13 Noroeste 20 Noroeste 0 -- -- 80
2018-01-06 12:00:00 0.4 10 Noroeste 20 Noroeste 0.4 -- -- 92
2018-01-06 11:00:00 -0.3 5 Noroeste 6 Noroeste 0 -- -- 96
2018-01-06 10:00:00 -0.7 4 Oeste 6 Oeste 0 -- -- 96
2018-01-06 09:00:00 -0.7 6 Noroeste 17 Norte 0 -- -- 95
2018-01-06 08:00:00 -0.2 8 Noroeste 19 Noroeste 0 -- -- 91
2018-01-06 07:00:00 0.5 15 Noroeste 23 Noroeste 0 -- -- 86
2018-01-06 06:00:00 0.5 17 Noroeste 23 Noroeste 0 -- -- 87
2018-01-06 05:00:00 0.8 12 Noroeste 16 Noroeste 0 -- -- 87
2018-01-06 04:00:00 1 8 Noroeste 26 Oeste 0 -- -- 87
2018-01-06 03:00:00 1.4 20 Oeste 28 Oeste 0 -- -- 86
2018-01-06 02:00:00 1.8 18 Oeste 25 Oeste 0 -- -- 86
2018-01-06 01:00:00 2 18 Oeste 30 Noroeste 0 -- -- 84
2018-01-06 00:00:00 2.3 21 Oeste 27 Oeste 0 -- -- 84
2018-01-05 23:00:00 2.6 15 Oeste 20 Noroeste 0 -- -- 85
2018-01-05 22:00:00 3.2 18 Oeste 24 Noroeste 0 -- -- 82
2018-01-05 21:00:00 3.5 15 Oeste 22 Oeste 0 -- -- 84
2018-01-05 20:00:00 3.7 14 Oeste 27 Noroeste 0 -- -- 84
2018-01-05 19:00:00 4.1 12 Noroeste 29 Noroeste 0 -- -- 81
2018-01-05 18:00:00 5 17 Oeste 32 Oeste 0 -- -- 80
2018-01-05 17:00:00 5.8 22 Oeste 35 Oeste 0 -- -- 79
2018-01-05 16:00:00 6.9 23 Oeste 33 Oeste 0 -- -- 76
2018-01-05 15:00:00 6.7 23 Oeste 33 Oeste 0 -- -- 80
2018-01-05 14:00:00 7.5 8 Sudoeste 21 Sudoeste 0 -- -- 81
2018-01-05 13:00:00 7 13 Sudoeste 19 Sudoeste 0 -- -- 84
2018-01-05 12:00:00 6.3 12 Oeste 23 Oeste 0 -- -- 86
2018-01-05 11:00:00 5.1 12 Oeste 23 Oeste 0 -- -- 90
2018-01-05 10:00:00 5 19 Oeste 36 Oeste 0 -- -- 89
2018-01-05 09:00:00 6.7 19 Oeste 54 Sudoeste 0.4 -- -- 92
2018-01-05 08:00:00 7.1 21 Sur 36 Sur 0 -- -- 97
2018-01-05 07:00:00 7.1 32 Sur 46 Sur 0 -- -- 96
2018-01-05 06:00:00 7 25 Sur 40 Sur 0 -- -- 95
2018-01-05 05:00:00 7.1 32 Sur 47 Sur 0 -- -- 93
2018-01-05 04:00:00 7.2 28 Sur 39 Sur 0 -- -- 92
2018-01-05 03:00:00 7.4 28 Sur 47 Sur 0 -- -- 91
2018-01-05 02:00:00 7.4 32 Sur 44 Sudoeste 0 -- -- 91
2018-01-05 01:00:00 8 26 Sur 41 Sudoeste 0 -- -- 89
2018-01-05 00:00:00 7.9 28 Sur 44 Sur 0 -- -- 89
2018-01-04 23:00:00 7.9 23 Sudoeste 34 Sur 0 -- -- 86
2018-01-04 22:00:00 8.4 22 Sudoeste 31 Sudoeste 0 -- -- 84
2018-01-04 21:00:00 8.5 20 Sudoeste 28 Sudoeste 0 -- -- 86
2018-01-04 20:00:00 9 16 Sudoeste 30 Oeste 0 -- -- 79
2018-01-04 19:00:00 9.7 20 Oeste 31 Oeste 0 -- -- 74
2018-01-04 18:00:00 10.3 21 Oeste 39 Oeste 0 -- -- 74
2018-01-04 17:00:00 11.2 30 Oeste 48 Oeste 0 -- -- 73
2018-01-04 16:00:00 12.1 28 Oeste 45 Oeste 0 -- -- 68
2018-01-04 15:00:00 13.8 24 Oeste 35 Oeste 0 -- -- 60
2018-01-04 14:00:00 14.3 13 Sudoeste 44 Oeste 0 -- -- 59
2018-01-04 13:00:00 13.5 28 Oeste 41 Oeste 0 -- -- 59
2018-01-04 12:00:00 12.5 23 Oeste 38 Oeste 0 -- -- 68
2018-01-04 11:00:00 10.8 11 Sur 31 Sur 0 -- -- 77
2018-01-04 10:00:00 8.9 15 Sur 26 Sur 0 -- -- 86
2018-01-04 09:00:00 7.6 13 Sur 27 Sudoeste 0 -- -- 88
2018-01-04 08:00:00 8.6 15 Sudoeste 25 Oeste 0 -- -- 80
2018-01-04 07:00:00 8.8 13 Sudoeste 31 Sudoeste 0 -- -- 88
2018-01-04 06:00:00 8.9 14 Sur 20 Sudoeste 0 -- -- 95
2018-01-04 05:00:00 9.1 11 Sudoeste 23 Sudoeste 0 -- -- 94
2018-01-04 04:00:00 9.6 15 Sur 26 Sur 0 -- -- 92
2018-01-04 03:00:00 9.7 15 Sur 19 Sur 0 -- -- 90
2018-01-04 02:00:00 10.6 8 Sudoeste 28 Sudoeste 0 -- -- 85
2018-01-04 01:00:00 11.8 18 Sudoeste 28 Oeste 0 -- -- 77
2018-01-04 00:00:00 10.9 6 Sudoeste 23 Oeste 0 -- -- 86
2018-01-03 23:00:00 11.1 9 Oeste 16 Oeste 0 -- -- 87
2018-01-03 22:00:00 11 12 Sudoeste 21 Sudoeste 0 -- -- 88
2018-01-03 21:00:00 11 18 Sudoeste 33 Oeste 0.2 -- -- 87
2018-01-03 20:00:00 12 24 Oeste 41 Oeste 0 -- -- 83
2018-01-03 19:00:00 12.4 22 Oeste 36 Oeste 0 -- -- 81
2018-01-03 18:00:00 13.1 28 Oeste 49 Oeste 0 -- -- 79
2018-01-03 17:00:00 14.7 30 Oeste 47 Oeste 0 -- -- 73
2018-01-03 16:00:00 15.5 30 Oeste 55 Oeste 0 -- -- 71
2018-01-03 15:00:00 15.2 36 Oeste 51 Oeste 0 -- -- 74
2018-01-03 14:00:00 14.7 29 Oeste 45 Oeste 0 -- -- 75
2018-01-03 13:00:00 14.2 19 Oeste 32 Oeste 0 -- -- 79
2018-01-03 12:00:00 13.8 24 Oeste 48 Oeste 0 -- -- 79
2018-01-03 11:00:00 12.4 18 Sudoeste 28 Sudoeste 0 -- -- 85
2018-01-03 10:00:00 10.5 18 Sudoeste 24 Sudoeste 0 -- -- 93
2018-01-03 09:00:00 10.5 13 Sur 19 Sur 0 -- -- 92
2018-01-03 08:00:00 10.8 10 Sur 15 Sudoeste 0 -- -- 90
2018-01-03 07:00:00 11.2 7 Sudoeste 28 Oeste 0 -- -- 88
2018-01-03 06:00:00 12.6 13 Oeste 35 Oeste 0 -- -- 82
2018-01-03 05:00:00 12.8 22 Oeste 40 Oeste 0 -- -- 81
2018-01-03 04:00:00 13 21 Oeste 35 Oeste 0 -- -- 79
2018-01-03 03:00:00 12.6 21 Oeste 39 Sudoeste -- -- -- 81
2018-01-03 02:00:00 12.7 22 Oeste 34 Oeste 0 -- -- 80
2018-01-03 01:00:00 12.4 17 Sudoeste 49 Oeste 0 -- -- 80
2018-01-03 00:00:00 12.7 23 Oeste 47 Oeste 0 -- -- 82
2018-01-02 23:00:00 12 21 Oeste 31 Oeste 0 -- -- 86
2018-01-02 22:00:00 10.6 18 Sudoeste 30 Sudoeste 0 -- -- 92
2018-01-02 21:00:00 10.3 16 Sudoeste 23 Sudoeste 0 -- -- 93
2018-01-02 20:00:00 10.4 14 Sudoeste 20 Sudoeste 0 -- -- 92
2018-01-02 19:00:00 10.3 7 Sur 23 Sudoeste 0 -- -- 91
2018-01-02 18:00:00 11.4 15 Sudoeste 21 Sudoeste 0 -- -- 88
2018-01-02 17:00:00 12.1 15 Sudoeste 25 Sudoeste 0 -- -- 86
2018-01-02 16:00:00 12 20 Sudoeste 30 Sudoeste 0 -- -- 85
2018-01-02 15:00:00 11.5 18 Sudoeste 24 Sudoeste 0 -- -- 87
2018-01-02 14:00:00 10.7 19 Sudoeste 24 Sur 0 -- -- 88
2018-01-02 13:00:00 10.2 17 Sudoeste 22 Sudoeste 0 -- -- 88
2018-01-02 12:00:00 8.9 14 Sudoeste 23 Sudoeste 0 -- -- 91
2018-01-02 11:00:00 7.9 16 Sur 21 Sudoeste 0 -- -- 93
2018-01-02 10:00:00 7.3 6 Sur 15 Sudoeste 0 -- -- 92
2018-01-02 09:00:00 6.7 9 Sudoeste 18 Sudoeste 0 -- -- 89
2018-01-02 08:00:00 6.6 10 Sudoeste 17 Sudoeste 0 -- -- 88
2018-01-02 07:00:00 6.9 15 Sudoeste 28 Oeste 0 -- -- 88
2018-01-02 06:00:00 7.9 22 Oeste 31 Oeste 0 -- -- 82
2018-01-02 05:00:00 7.2 21 Sudoeste 27 Sudoeste 0 -- -- 85
2018-01-02 04:00:00 7.4 20 Sudoeste 26 Sudoeste 0 -- -- 87
2018-01-02 03:00:00 8 22 Oeste 31 Oeste 0 -- -- 83
2018-01-02 02:00:00 8.1 20 Oeste 39 Oeste 0 -- -- 81
2018-01-02 01:00:00 8.3 29 Oeste 42 Oeste 0 -- -- 75
2018-01-02 00:00:00 8.6 31 Oeste 50 Oeste 0 -- -- 74
2018-01-01 23:00:00 8.6 29 Oeste 40 Oeste 0 -- -- 79
2018-01-01 22:00:00 8.5 13 Oeste 30 Sudoeste 0 -- -- 89
2018-01-01 21:00:00 8.7 12 Sudoeste 24 Sudoeste 0 -- -- 86
2018-01-01 20:00:00 9 8 Sudoeste 35 Oeste 0 -- -- 80
2018-01-01 19:00:00 8.8 25 Oeste 54 Noroeste 0 -- -- 79
2018-01-01 18:00:00 9.3 26 Oeste 41 Oeste 0 -- -- 75
2018-01-01 17:00:00 10.1 34 Oeste 64 Oeste 0 -- -- 74
2018-01-01 16:00:00 11.1 37 Oeste 66 Oeste 0 -- -- 74
2018-01-01 15:00:00 10.8 39 Oeste 66 Oeste 0 -- -- 72
2018-01-01 14:00:00 10.9 36 Oeste 57 Oeste 0 -- -- 71
2018-01-01 13:00:00 10 26 Oeste 65 Sudoeste 0 -- -- 73
2018-01-01 12:00:00 7.4 16 Sur 27 Sudoeste 0 -- -- 81
2018-01-01 11:00:00 5.8 14 Sudoeste 26 Sur 0 -- -- 86
2018-01-01 10:00:00 2.6 9 Sudoeste 25 Sudoeste 0 -- -- 94
2018-01-01 09:00:00 1.6 12 Sudoeste 18 Sudoeste 0 -- -- 95
2018-01-01 08:00:00 1.3 2 Oeste 17 Sur 0 -- -- 95
2018-01-01 07:00:00 0.5 7 Sur 16 Sudoeste 0 -- -- 92
2018-01-01 06:00:00 1.1 12 Sur 19 Sur 0 -- -- 92
2018-01-01 05:00:00 1.6 13 Sur 27 Sudoeste 0 -- -- 86
2018-01-01 04:00:00 3.1 13 Sudoeste 22 Sudoeste 0 -- -- 80
2018-01-01 03:00:00 2.7 10 Sur 28 Sudoeste 0 -- -- 78
2018-01-01 02:00:00 1.7 14 Sudoeste 24 Sudoeste 0 -- -- 85
2018-01-01 01:00:00 2.6 15 Sudoeste 26 Oeste 0 -- -- 82
2018-01-01 00:00:00 2.5 15 Oeste 27 Oeste 0 -- -- 82
2017-12-31 23:00:00 2 12 Oeste 16 Sudoeste 0 -- -- 83
2017-12-31 22:00:00 2.3 7 Sudoeste 39 Oeste 0 -- -- 83
2017-12-31 21:00:00 3.5 24 Oeste 38 Oeste 0 -- -- 79
2017-12-31 20:00:00 3.1 22 Oeste 41 Oeste 0 -- -- 80
2017-12-31 19:00:00 2.9 30 Oeste 41 Oeste 0 -- -- 78
2017-12-31 18:00:00 3.1 29 Oeste 70 Noroeste 0.2 -- -- 82
2017-12-31 17:00:00 5.5 35 Oeste 60 Oeste 0 -- -- 81
2017-12-31 16:00:00 5.3 29 Oeste 43 Oeste 0 -- -- 84
2017-12-31 15:00:00 5.4 28 Oeste 41 Oeste 0 -- -- 85
2017-12-31 14:00:00 5.9 17 Oeste 50 Sudoeste 1.2 -- -- 89
2017-12-31 13:00:00 8.5 33 Sur 47 Sur 0 -- -- 89
2017-12-31 12:00:00 8 30 Sur 51 Sur 0 -- -- 91
2017-12-31 11:00:00 7.6 34 Sur 49 Sur 0 -- -- 91
2017-12-31 10:00:00 7.4 33 Sur 45 Sur 0 -- -- 91
2017-12-31 09:00:00 6.8 27 Sur 36 Sur 0 -- -- 93
2017-12-31 08:00:00 4.1 10 Sur 16 Sur 0 -- -- 97
2017-12-31 07:00:00 2.6 3 Oeste 17 Sudoeste 0 -- -- 93
2017-12-31 06:00:00 3 6 Sur 14 Sur 0 -- -- 95
2017-12-31 05:00:00 3.3 7 Sudoeste 13 Sudoeste 0 -- -- 97
2017-12-31 04:00:00 2.3 5 Este 13 Este 0 -- -- 97
2017-12-31 03:00:00 2 5 Nordeste 8 Nordeste 0 -- -- 96
2017-12-31 02:00:00 2.7 2 Este 12 Sur 0 -- -- 96
2017-12-31 01:00:00 3.7 6 Sudeste 9 Sudeste 0 -- -- 96